INFORMAÇÕES DO AERODROMO
Icao Aerodromo SBCP Nome do Aerodromo Bartolomeu Lisandro Airport Cidade Campos Dos Goytacazes
Código GPS SBCP Elevação Média 57 ft Tipo de Aerodromo Aeroporto Médio Porte

INFORMAÇÃO DE PISTA
Pista 7 Comprimento da Pista 5066 ft Largura da Pista 148 ft
Elevação da Pista 0 ft Distância de Area de Escape da Pista 0 ft Orientação da Pista 0
Pista 25 Comprimento da Pista 5066 ft Largura da Pista 148 ft
Elevação da Pista 0 ft Distância de Area de Escape da Pista 0 ft Orientação da Pista 0

FREQUÊNCIAS DO AERODROMO
Tipo AFIS Nome CAMPOS RDO Frequência 125.7 MHZ

INFORMAÇÕES DE NAVEGAÇÃO PRÓXIMO AO AERODROMO
Tipo NDB Nome Campos Frequência 225 KHZ

Informações de Meteorologia(METAR atual)
METAR DE SBCP
ADDS - METARS form results

(1925 UTC 14 November 2018)
Data provider http://aviationweather.gov/metar/data/
 
Forecast for: SBCP (CAMPOS/BARTOLOME, BR)
Text: TAF SBCP 141430Z 1418/1506 06015KT 9999 FEW020 TX31/1418Z TN25/1422Z RMK PHD
Forecast period: 1800 UTC 14 November 2018 to 0600 UTC 15 November 2018
Forecast type: FROM: standard forecast or significant change
Winds: from the ENE (60 degrees) at 17 MPH (15 knots; 7.7 m/s)
Visibility: 6 or more miles 10+ km)
Ceiling: at least 12,000 feet AGL
Clouds: few clouds at 2000 feet AGL
Weather: no significant weather forecast for this period

MAPA DO AERODROMO


Desenvolvido por Virtual Airlines Manager




Modificado por Servidor Brasil Amigos